Time;durP1;ratioP1;P1;durP2;ratioP2;P2;SDS_P1;SDS_P2;PMS_P1;PMS_P2;Temp;Humidity;BMP_temperature;BMP_pressure;BME280_temperature;BME280_humidity;BME280_pressure;Samples;Min_cycle;Max_cycle;Signal;HPM_P1;HPM_P2
2023/06/10 00:00:24;;;;;;;9.57;6.45;;;;;;;;;;5018174;28;20108;-61
2023/06/10 00:02:49;;;;;;;10.40;6.63;;;;;;;;;;5017804;28;20088;-61
2023/06/10 00:05:16;;;;;;;9.73;6.67;;;;;;;;;;5024663;28;20018;-61
2023/06/10 00:07:41;;;;;;;11.02;7.18;;;;;;;;;;5016356;28;20041;-59
2023/06/10 00:10:06;;;;;;;10.03;6.27;;;;;;;;;;5018032;28;20010;-60
2023/06/10 00:12:36;;;;;;;10.05;6.53;;;;;;;;;;5032349;28;20504;-60
2023/06/10 00:15:02;;;;;;;11.95;7.65;;;;;;;;;;5024888;28;20091;-61
2023/06/10 00:17:28;;;;;;;9.43;6.63;;;;;;;;;;5020355;28;20476;-61
2023/06/10 00:19:55;;;;;;;12.27;7.35;;;;;;;;;;5025907;28;20022;-60
2023/06/10 00:22:22;;;;;;;9.80;6.90;;;;;;;;;;5028067;28;20049;-59
2023/06/10 00:24:47;;;;;;;9.82;7.38;;;;;;;;;;5031273;28;20098;-61
2023/06/10 00:27:12;;;;;;;9.35;6.57;;;;;;;;;;5019132;28;20106;-61
2023/06/10 00:29:38;;;;;;;9.57;6.47;;;;;;;;;;5023220;28;20025;-60
2023/06/10 00:32:04;;;;;;;;;;;;;;;;;;5028644;28;20048;-60
2023/06/10 00:34:29;;;;;;;11.13;7.07;;;;;;;;;;5022031;28;20335;-61
2023/06/10 00:36:54;;;;;;;9.43;7.07;;;;;;;;;;5016242;28;20022;-61
2023/06/10 00:39:19;;;;;;;9.80;6.83;;;;;;;;;;5018911;28;20032;-61
2023/06/10 00:41:45;;;;;;;8.90;6.40;;;;;;;;;;5024985;28;20539;-60
2023/06/10 00:44:10;;;;;;;10.90;7.13;;;;;;;;;;5023909;28;20064;-60
2023/06/10 00:46:37;;;;;;;11.03;6.90;;;;;;;;;;5025389;28;20481;-60
2023/06/10 00:49:02;;;;;;;9.45;7.03;;;;;;;;;;5029124;28;20064;-61
2023/06/10 00:51:27;;;;;;;9.90;8.02;;;;;;;;;;5023840;28;20045;-61
2023/06/10 00:53:53;;;;;;;9.77;7.67;;;;;;;;;;5026800;28;20041;-60
2023/06/10 00:56:18;;;;;;;9.20;7.00;;;;;;;;;;5029118;28;20021;-60
2023/06/10 00:58:43;;;;;;;10.17;7.10;;;;;;;;;;5031672;28;20025;-61
2023/06/10 01:01:10;;;;;;;11.33;7.70;;;;;;;;;;5031566;28;20028;-60
2023/06/10 01:03:36;;;;;;;10.45;7.30;;;;;;;;;;5029957;28;20025;-60
2023/06/10 01:06:24;;;;;;;12.05;8.02;;;;;;;;;;5026585;28;20179;-60
2023/06/10 01:08:55;;;;;;;10.55;7.40;;;;;;;;;;5024186;28;20036;-61
2023/06/10 01:11:23;;;;;;;12.70;7.43;;;;;;;;;;5027746;28;20155;-61
2023/06/10 01:13:51;;;;;;;11.48;6.97;;;;;;;;;;5031694;28;20489;-61
2023/06/10 01:16:16;;;;;;;10.50;7.22;;;;;;;;;;5030461;28;20396;-61
2023/06/10 01:18:42;;;;;;;9.82;6.50;;;;;;;;;;5026220;28;20018;-61
2023/06/10 01:21:07;;;;;;;10.07;7.50;;;;;;;;;;5021226;28;20025;-61
2023/06/10 01:23:32;;;;;;;11.68;7.85;;;;;;;;;;5023655;28;20116;-61
2023/06/10 01:26:04;;;;;;;12.23;7.93;;;;;;;;;;5029540;28;20014;-60
2023/06/10 01:28:29;;;;;;;10.52;7.88;;;;;;;;;;5029227;28;20041;-61
2023/06/10 01:31:00;;;;;;;11.13;7.57;;;;;;;;;;5023014;28;20045;-61
2023/06/10 01:33:34;;;;;;;12.57;7.93;;;;;;;;;;5030553;28;20064;-61
2023/06/10 01:36:00;;;;;;;11.40;7.38;;;;;;;;;;5020599;28;20498;-60
2023/06/10 01:38:26;;;;;;;10.43;7.90;;;;;;;;;;5025401;28;20025;-61
2023/06/10 01:40:53;;;;;;;10.60;7.60;;;;;;;;;;5034684;28;20061;-61
2023/06/10 01:43:19;;;;;;;11.07;7.82;;;;;;;;;;5024491;28;20033;-61
2023/06/10 01:45:44;;;;;;;12.35;7.55;;;;;;;;;;5024933;28;20477;-61
2023/06/10 01:48:09;;;;;;;11.07;7.80;;;;;;;;;;5030079;28;20041;-61
2023/06/10 01:50:34;;;;;;;10.60;7.60;;;;;;;;;;5023963;28;20109;-61
2023/06/10 01:53:00;;;;;;;10.95;8.13;;;;;;;;;;5028429;28;20095;-60
2023/06/10 01:55:25;;;;;;;10.23;7.32;;;;;;;;;;5034817;28;20017;-61
2023/06/10 01:57:51;;;;;;;11.80;7.63;;;;;;;;;;5031429;28;20049;-61
2023/06/10 02:00:16;;;;;;;;;;;;;;;;;;5017581;28;20018;-61
2023/06/10 02:02:42;;;;;;;9.95;7.20;;;;;;;;;;5023381;28;19909;-61
2023/06/10 02:05:07;;;;;;;10.17;7.90;;;;;;;;;;5027974;28;20389;-61
2023/06/10 02:07:32;;;;;;;13.70;8.00;;;;;;;;;;5027979;28;20476;-61
2023/06/10 02:09:57;;;;;;;10.63;7.72;;;;;;;;;;5028204;28;20074;-60
2023/06/10 02:12:22;;;;;;;11.87;7.13;;;;;;;;;;5023873;28;20452;-59
2023/06/10 02:14:48;;;;;;;11.07;8.40;;;;;;;;;;5026812;28;21494;-60
2023/06/10 02:17:14;;;;;;;10.27;7.30;;;;;;;;;;5031073;28;20450;-63
2023/06/10 02:19:42;;;;;;;9.63;7.30;;;;;;;;;;5044183;28;20122;-62
2023/06/10 02:22:07;;;;;;;10.45;7.35;;;;;;;;;;5020070;28;20014;-62
2023/06/10 02:24:32;;;;;;;10.30;7.47;;;;;;;;;;5022844;28;20037;-62
2023/06/10 02:27:00;;;;;;;10.02;7.32;;;;;;;;;;5024092;28;20112;-62
2023/06/10 02:29:25;;;;;;;10.27;7.55;;;;;;;;;;5023798;28;20167;-61
2023/06/10 02:31:52;;;;;;;8.95;6.80;;;;;;;;;;5015528;28;20120;-61
2023/06/10 02:34:17;;;;;;;11.95;8.32;;;;;;;;;;5024577;28;20033;-61
2023/06/10 02:36:42;;;;;;;11.82;8.10;;;;;;;;;;5018034;28;20604;-61
2023/06/10 02:39:08;;;;;;;10.48;7.28;;;;;;;;;;5022090;28;20017;-62
2023/06/10 02:41:33;;;;;;;11.17;7.90;;;;;;;;;;5022043;28;20041;-60
2023/06/10 02:43:58;;;;;;;11.90;8.18;;;;;;;;;;5011174;28;20069;-63
2023/06/10 02:46:23;;;;;;;11.15;7.68;;;;;;;;;;5011612;28;20030;-60
2023/06/10 02:48:51;;;;;;;11.30;7.23;;;;;;;;;;5010402;28;20053;-60
2023/06/10 02:51:16;;;;;;;11.32;7.80;;;;;;;;;;5014408;28;20021;-60
2023/06/10 02:53:41;;;;;;;11.35;7.32;;;;;;;;;;5024858;28;20029;-61
2023/06/10 02:56:07;;;;;;;9.45;7.55;;;;;;;;;;5031769;28;20041;-61
2023/06/10 02:58:32;;;;;;;13.57;8.27;;;;;;;;;;5023175;28;20443;-61
2023/06/10 03:00:58;;;;;;;11.47;7.97;;;;;;;;;;5021285;28;20048;-61
2023/06/10 03:03:23;;;;;;;12.40;8.77;;;;;;;;;;5016688;28;20020;-61
2023/06/10 03:05:48;;;;;;;11.53;8.97;;;;;;;;;;5025951;28;20465;-60
2023/06/10 03:08:13;;;;;;;11.77;8.50;;;;;;;;;;5025146;28;20558;-61
2023/06/10 03:10:39;;;;;;;12.20;8.47;;;;;;;;;;5027658;28;20060;-60
2023/06/10 03:13:04;;;;;;;11.75;8.65;;;;;;;;;;5024160;28;20017;-61
2023/06/10 03:15:32;;;;;;;10.52;8.32;;;;;;;;;;5027049;28;20026;-60
2023/06/10 03:17:58;;;;;;;12.68;8.02;;;;;;;;;;5016744;28;20079;-61
2023/06/10 03:20:23;;;;;;;12.73;8.77;;;;;;;;;;5021838;28;20018;-61
2023/06/10 03:22:48;;;;;;;11.20;8.40;;;;;;;;;;5025375;28;20064;-61
2023/06/10 03:25:17;;;;;;;12.93;9.40;;;;;;;;;;5029959;28;20392;-61
2023/06/10 03:27:42;;;;;;;13.75;8.70;;;;;;;;;;5027225;28;20112;-61
2023/06/10 03:30:08;;;;;;;12.07;8.80;;;;;;;;;;5028062;28;20117;-61
2023/06/10 03:32:33;;;;;;;12.23;7.72;;;;;;;;;;5018476;28;20036;-62
2023/06/10 03:34:58;;;;;;;10.50;7.40;;;;;;;;;;5015669;28;20030;-61
2023/06/10 03:37:24;;;;;;;11.20;8.30;;;;;;;;;;5025795;28;20551;-61
2023/06/10 03:39:49;;;;;;;10.90;8.40;;;;;;;;;;5026225;28;20033;-61
2023/06/10 03:42:14;;;;;;;10.17;7.60;;;;;;;;;;5017076;28;20014;-61
2023/06/10 03:44:39;;;;;;;13.27;7.97;;;;;;;;;;5022466;28;20018;-61
2023/06/10 03:47:05;;;;;;;10.63;7.63;;;;;;;;;;5020641;28;20087;-61
2023/06/10 03:49:30;;;;;;;11.77;7.93;;;;;;;;;;5025310;28;20022;-61
2023/06/10 03:51:55;;;;;;;10.97;8.40;;;;;;;;;;5024956;28;20528;-61
2023/06/10 03:54:20;;;;;;;10.25;7.57;;;;;;;;;;5023028;28;20106;-61
2023/06/10 03:56:48;;;;;;;11.00;7.13;;;;;;;;;;5023555;28;20026;-61
2023/06/10 03:59:13;;;;;;;9.85;6.97;;;;;;;;;;5019975;28;20025;-62
2023/06/10 04:01:40;;;;;;;11.70;6.93;;;;;;;;;;5023006;28;20566;-61
2023/06/10 04:04:06;;;;;;;11.18;7.90;;;;;;;;;;5014498;28;20452;-61
2023/06/10 04:06:31;;;;;;;9.32;6.68;;;;;;;;;;5025217;28;20112;-61
2023/06/10 04:08:59;;;;;;;11.65;7.40;;;;;;;;;;5049549;28;20411;-61
2023/06/10 04:11:24;;;;;;;9.55;6.90;;;;;;;;;;5021171;28;20355;-61
2023/06/10 04:13:49;;;;;;;10.83;7.17;;;;;;;;;;5019263;28;20113;-61
2023/06/10 04:16:15;;;;;;;9.73;7.43;;;;;;;;;;5013410;28;20037;-61
2023/06/10 04:18:41;;;;;;;10.83;8.23;;;;;;;;;;5025341;28;20074;-61
2023/06/10 04:21:06;;;;;;;13.32;9.20;;;;;;;;;;5019714;28;20032;-61
2023/06/10 04:23:32;;;;;;;10.73;8.27;;;;;;;;;;5021176;28;20025;-61
2023/06/10 04:25:57;;;;;;;13.82;8.93;;;;;;;;;;5014675;28;20622;-61
2023/06/10 04:28:22;;;;;;;12.43;8.40;;;;;;;;;;5015613;28;20147;-61
2023/06/10 04:30:47;;;;;;;11.30;8.10;;;;;;;;;;5023686;28;20054;-60
2023/06/10 04:33:13;;;;;;;11.50;7.60;;;;;;;;;;5014421;28;20025;-61
2023/06/10 04:35:38;;;;;;;11.03;8.70;;;;;;;;;;5018038;28;20032;-61
2023/06/10 04:38:03;;;;;;;9.65;7.75;;;;;;;;;;5023407;28;20045;-60
2023/06/10 04:40:28;;;;;;;11.80;8.57;;;;;;;;;;5026157;28;20028;-60
2023/06/10 04:42:53;;;;;;;10.97;8.27;;;;;;;;;;5024387;28;20041;-61
2023/06/10 04:45:18;;;;;;;12.85;7.90;;;;;;;;;;5019461;28;20070;-60
2023/06/10 04:47:43;;;;;;;10.40;7.68;;;;;;;;;;5018616;28;20030;-60
2023/06/10 04:50:09;;;;;;;10.90;8.07;;;;;;;;;;5014902;28;20072;-60
2023/06/10 04:52:34;;;;;;;10.73;7.63;;;;;;;;;;5014953;28;20061;-60
2023/06/10 04:54:59;;;;;;;12.37;7.97;;;;;;;;;;5018022;28;20453;-60
2023/06/10 04:57:24;;;;;;;11.10;7.90;;;;;;;;;;5014622;28;20034;-61
2023/06/10 04:59:49;;;;;;;10.87;7.93;;;;;;;;;;5023115;28;20025;-61
2023/06/10 05:02:15;;;;;;;11.30;8.50;;;;;;;;;;5020334;28;20029;-61
2023/06/10 05:04:40;;;;;;;11.13;8.00;;;;;;;;;;5026506;28;20088;-62
2023/06/10 05:07:05;;;;;;;10.93;8.45;;;;;;;;;;5014547;28;20102;-61
2023/06/10 05:09:30;;;;;;;11.13;7.70;;;;;;;;;;5030238;28;20053;-61
2023/06/10 05:11:55;;;;;;;;;;;;;;;;;;5023595;28;20478;-61
2023/06/10 05:14:21;;;;;;;12.13;7.88;;;;;;;;;;5021254;28;19920;-60
2023/06/10 05:16:46;;;;;;;9.53;7.10;;;;;;;;;;5035170;28;20029;-60
2023/06/10 05:19:11;;;;;;;9.23;7.07;;;;;;;;;;5022269;28;21034;-60
2023/06/10 05:21:36;;;;;;;8.83;6.43;;;;;;;;;;5031848;28;20388;-61
2023/06/10 05:24:02;;;;;;;;;;;;;;;;;;5020024;28;20059;-61
2023/06/10 05:26:28;;;;;;;8.60;6.30;;;;;;;;;;5012886;28;19917;-61
2023/06/10 05:28:53;;;;;;;11.20;5.72;;;;;;;;;;5017781;28;20030;-62
2023/06/10 05:31:19;;;;;;;8.45;6.65;;;;;;;;;;5020243;28;20022;-61
2023/06/10 05:33:44;;;;;;;;;;;;;;;;;;5015829;28;20029;-61
2023/06/10 05:36:09;;;;;;;8.80;7.10;;;;;;;;;;5020577;28;19952;-61
2023/06/10 05:38:34;;;;;;;9.53;6.67;;;;;;;;;;5014689;28;20032;-61
2023/06/10 05:40:59;;;;;;;9.18;6.30;;;;;;;;;;5011817;28;20025;-61
2023/06/10 05:43:25;;;;;;;10.17;7.17;;;;;;;;;;5039742;28;20238;-61
2023/06/10 05:45:50;;;;;;;9.10;6.45;;;;;;;;;;5030734;28;20021;-61
2023/06/10 05:48:15;;;;;;;10.70;6.85;;;;;;;;;;5019499;28;20069;-61
2023/06/10 05:50:42;;;;;;;8.57;6.63;;;;;;;;;;5011506;28;20030;-61
2023/06/10 05:53:14;;;;;;;9.82;6.63;;;;;;;;;;5020310;28;20029;-61
2023/06/10 05:55:39;;;;;;;8.85;7.03;;;;;;;;;;5020688;28;20576;-62
2023/06/10 05:58:04;;;;;;;8.30;6.50;;;;;;;;;;5016284;28;20449;-61
2023/06/10 06:00:30;;;;;;;8.80;5.87;;;;;;;;;;5023255;28;20014;-61
2023/06/10 06:02:57;;;;;;;8.93;6.20;;;;;;;;;;5038706;28;20475;-62
2023/06/10 06:05:22;;;;;;;8.38;6.28;;;;;;;;;;5022783;28;20030;-62
2023/06/10 06:07:47;;;;;;;10.07;6.43;;;;;;;;;;5023499;28;20084;-62
2023/06/10 06:10:12;;;;;;;7.65;5.43;;;;;;;;;;5030453;28;20397;-62
2023/06/10 06:12:37;;;;;;;9.23;5.93;;;;;;;;;;5046980;28;20448;-62
2023/06/10 06:15:02;;;;;;;7.73;5.50;;;;;;;;;;5022517;28;20026;-62
2023/06/10 06:17:27;;;;;;;8.20;4.80;;;;;;;;;;5025270;28;20045;-62
2023/06/10 06:19:53;;;;;;;7.30;5.43;;;;;;;;;;5023525;28;20029;-62
2023/06/10 06:22:21;;;;;;;7.27;5.00;;;;;;;;;;5031725;28;20075;-62
2023/06/10 06:24:46;;;;;;;7.90;5.55;;;;;;;;;;5029616;28;20108;-62
2023/06/10 06:27:11;;;;;;;7.28;5.55;;;;;;;;;;5015322;28;20585;-62
2023/06/10 06:29:37;;;;;;;6.97;5.43;;;;;;;;;;5014378;28;20025;-62
2023/06/10 06:32:02;;;;;;;8.48;5.35;;;;;;;;;;5011086;28;20343;-62
2023/06/10 06:34:27;;;;;;;8.73;5.77;;;;;;;;;;5028137;28;20020;-61
2023/06/10 06:36:52;;;;;;;7.72;5.30;;;;;;;;;;5037415;28;20097;-63
2023/06/10 06:39:17;;;;;;;7.57;5.72;;;;;;;;;;5031253;28;20025;-63
2023/06/10 06:41:42;;;;;;;7.63;5.05;;;;;;;;;;5032441;28;20103;-63
2023/06/10 06:44:07;;;;;;;7.53;5.40;;;;;;;;;;5028534;28;20018;-63
2023/06/10 06:46:33;;;;;;;8.38;5.35;;;;;;;;;;5030886;28;20045;-63
2023/06/10 06:48:58;;;;;;;7.73;5.30;;;;;;;;;;5029194;28;20057;-63
2023/06/10 06:51:23;;;;;;;7.15;4.93;;;;;;;;;;5035696;28;20021;-63
2023/06/10 06:53:50;;;;;;;7.70;5.22;;;;;;;;;;5033824;28;20057;-63
2023/06/10 06:56:15;;;;;;;7.65;4.90;;;;;;;;;;5031231;28;20029;-61
2023/06/10 06:58:41;;;;;;;8.03;5.27;;;;;;;;;;5018837;28;20088;-62
2023/06/10 07:01:06;;;;;;;7.93;5.22;;;;;;;;;;5013427;28;20040;-63
2023/06/10 07:03:31;;;;;;;9.70;4.70;;;;;;;;;;5035781;28;20089;-61
2023/06/10 07:05:57;;;;;;;7.47;4.45;;;;;;;;;;5032852;28;20079;-63
2023/06/10 07:08:22;;;;;;;7.23;4.60;;;;;;;;;;5017418;28;20080;-63
2023/06/10 07:10:48;;;;;;;6.70;4.47;;;;;;;;;;5014441;28;20165;-62
2023/06/10 07:13:14;;;;;;;7.65;4.70;;;;;;;;;;5028675;28;20080;-63
2023/06/10 07:15:39;;;;;;;8.20;4.73;;;;;;;;;;5017328;28;20026;-63
2023/06/10 07:18:04;;;;;;;6.45;4.50;;;;;;;;;;5026700;28;20021;-63
2023/06/10 07:20:29;;;;;;;8.52;4.10;;;;;;;;;;5024831;28;20029;-63
2023/06/10 07:22:55;;;;;;;7.00;4.28;;;;;;;;;;5018784;28;20474;-63
2023/06/10 07:25:20;;;;;;;6.63;4.20;;;;;;;;;;5014565;28;20084;-63
2023/06/10 07:27:45;;;;;;;7.93;5.93;;;;;;;;;;5015508;28;20044;-63
2023/06/10 07:30:10;;;;;;;7.77;5.03;;;;;;;;;;5016246;28;20024;-63
2023/06/10 07:32:36;;;;;;;8.48;4.95;;;;;;;;;;5017235;28;20380;-63
2023/06/10 07:35:01;;;;;;;9.38;6.55;;;;;;;;;;5021321;28;20037;-63
2023/06/10 07:37:26;;;;;;;8.97;6.50;;;;;;;;;;5023902;28;21425;-63
2023/06/10 07:39:51;;;;;;;10.30;7.03;;;;;;;;;;5023463;28;20435;-63
2023/06/10 07:42:16;;;;;;;11.57;7.00;;;;;;;;;;5024023;28;20028;-63
2023/06/10 07:44:41;;;;;;;11.60;6.75;;;;;;;;;;5023211;28;20048;-63
2023/06/10 07:47:07;;;;;;;11.50;6.93;;;;;;;;;;5016923;28;20113;-63
2023/06/10 07:49:32;;;;;;;10.83;7.37;;;;;;;;;;5024466;28;20025;-62
2023/06/10 07:51:57;;;;;;;10.25;6.55;;;;;;;;;;5012948;28;20029;-63
2023/06/10 07:54:22;;;;;;;8.43;5.60;;;;;;;;;;5013132;28;20022;-63
2023/06/10 07:56:47;;;;;;;8.65;5.70;;;;;;;;;;5020567;28;20448;-63
2023/06/10 07:59:13;;;;;;;9.50;5.22;;;;;;;;;;5027011;28;20022;-63
2023/06/10 08:01:39;;;;;;;;;;;;;;;;;;5022428;28;20028;-63
2023/06/10 08:04:04;;;;;;;10.40;5.43;;;;;;;;;;5020304;28;19913;-63
2023/06/10 08:06:30;;;;;;;10.40;6.50;;;;;;;;;;5028525;28;21923;-63
2023/06/10 08:08:55;;;;;;;8.40;5.37;;;;;;;;;;5024922;28;20995;-63
2023/06/10 08:11:20;;;;;;;8.68;5.32;;;;;;;;;;5027167;28;20455;-63
2023/06/10 08:13:45;;;;;;;9.53;5.23;;;;;;;;;;5031894;28;20322;-61
2023/06/10 08:16:10;;;;;;;9.30;4.60;;;;;;;;;;5029139;28;21037;-62
2023/06/10 08:18:35;;;;;;;;;;;;;;;;;;5037687;28;20086;-64
2023/06/10 08:21:01;;;;;;;6.40;4.40;;;;;;;;;;5038519;28;19909;-64
2023/06/10 08:23:26;;;;;;;6.83;4.60;;;;;;;;;;5023579;28;20018;-63
2023/06/10 08:25:51;;;;;;;7.93;4.70;;;;;;;;;;5014379;28;20058;-63
2023/06/10 08:28:16;;;;;;;8.33;5.50;;;;;;;;;;5020568;28;20022;-63
2023/06/10 08:30:41;;;;;;;8.55;5.13;;;;;;;;;;5018535;28;20025;-62
2023/06/10 08:33:06;;;;;;;;;;;;;;;;;;5026169;28;20092;-61
2023/06/10 08:35:32;;;;;;;8.82;5.15;;;;;;;;;;5021575;28;20395;-61
2023/06/10 08:37:57;;;;;;;6.47;5.00;;;;;;;;;;5034633;28;20024;-62
2023/06/10 08:40:22;;;;;;;;;;;;;;;;;;5027580;28;20032;-62
2023/06/10 08:43:07;;;;;;;6.53;4.70;;;;;;;;;;5032850;28;19958;-62
2023/06/10 08:45:35;;;;;;;7.45;5.03;;;;;;;;;;5026340;28;20067;-62
2023/06/10 08:48:01;;;;;;;8.68;5.55;;;;;;;;;;5020415;28;20025;-62
2023/06/10 08:50:29;;;;;;;8.68;5.38;;;;;;;;;;5032848;28;20101;-63
2023/06/10 08:52:56;;;;;;;8.23;5.35;;;;;;;;;;5032747;28;20029;-64
2023/06/10 08:55:26;;;;;;;7.85;5.25;;;;;;;;;;5032509;28;20028;-62
2023/06/10 08:57:52;;;;;;;7.25;4.72;;;;;;;;;;5033088;28;20393;-63
2023/06/10 09:00:17;;;;;;;;;;;;;;;;;;5040805;28;20017;-63
2023/06/10 09:02:43;;;;;;;7.22;4.70;;;;;;;;;;5032385;28;19912;-66
2023/06/10 09:05:08;;;;;;;;;;;;;;;;;;5033409;28;20021;-61
2023/06/10 09:07:35;;;;;;;8.23;5.15;;;;;;;;;;5032841;28;20319;-62
2023/06/10 09:10:03;;;;;;;8.38;4.88;;;;;;;;;;5025666;28;20044;-62
2023/06/10 09:12:28;;;;;;;8.77;5.07;;;;;;;;;;5023895;28;20056;-62
2023/06/10 09:14:53;;;;;;;;;;;;;;;;;;5022865;28;20403;-62
2023/06/10 09:17:18;;;;;;;8.20;4.60;;;;;;;;;;5024100;28;19918;-62
2023/06/10 09:19:43;;;;;;;;;;;;;;;;;;5032097;28;20512;-61
2023/06/10 09:22:09;;;;;;;7.25;4.50;;;;;;;;;;5014735;28;19916;-61
2023/06/10 09:24:34;;;;;;;;;;;;;;;;;;5032162;28;20017;-63
2023/06/10 09:27:03;;;;;;;7.27;4.70;;;;;;;;;;5023237;28;19924;-61
2023/06/10 09:29:29;;;;;;;6.68;4.88;;;;;;;;;;5022499;28;20059;-63
2023/06/10 09:31:54;;;;;;;;;;;;;;;;;;5021939;28;20112;-63
2023/06/10 09:34:20;;;;;;;7.93;4.88;;;;;;;;;;5031137;28;19905;-64
2023/06/10 09:36:45;;;;;;;8.05;4.90;;;;;;;;;;5020907;28;20419;-63
2023/06/10 09:39:10;;;;;;;;;;;;;;;;;;5032122;28;20018;-63
2023/06/10 09:41:39;;;;;;;7.57;5.00;;;;;;;;;;5020141;28;19909;-63
2023/06/10 09:44:08;;;;;;;8.23;4.80;;;;;;;;;;5022857;28;20017;-63
2023/06/10 09:46:34;;;;;;;8.15;5.05;;;;;;;;;;5027794;28;20029;-63
2023/06/10 09:48:59;;;;;;;;;;;;;;;;;;5032223;28;20025;-63
2023/06/10 09:51:24;;;;;;;7.43;4.63;;;;;;;;;;5025569;28;19924;-63
2023/06/10 09:53:50;;;;;;;;;;;;;;;;;;5026311;28;20033;-63
2023/06/10 09:56:15;;;;;;;7.00;5.00;;;;;;;;;;5026309;28;20012;-63
2023/06/10 09:58:43;;;;;;;;;;;;;;;;;;5032248;28;20569;-63
2023/06/10 10:01:09;;;;;;;8.52;5.35;;;;;;;;;;5030210;28;19909;-62
2023/06/10 10:03:34;;;;;;;;;;;;;;;;;;5027806;28;20051;-61
2023/06/10 10:06:00;;;;;;;7.63;4.73;;;;;;;;;;5030295;28;19909;-61
2023/06/10 10:08:25;;;;;;;8.52;4.72;;;;;;;;;;5032182;28;20031;-61
2023/06/10 10:10:50;;;;;;;;;;;;;;;;;;5019249;28;20389;-63
2023/06/10 10:13:16;;;;;;;9.95;4.97;;;;;;;;;;5038443;28;20002;-63
2023/06/10 10:15:41;;;;;;;;;;;;;;;;;;5028166;28;20021;-60
2023/06/10 10:18:08;;;;;;;7.20;4.67;;;;;;;;;;5025834;28;19919;-63
2023/06/10 10:20:34;;;;;;;6.60;4.55;;;;;;;;;;5018576;28;21586;-63
2023/06/10 10:23:02;;;;;;;7.60;4.68;;;;;;;;;;5026321;28;20393;-63
2023/06/10 10:25:35;;;;;;;7.25;4.75;;;;;;;;;;5041658;28;20461;-63
2023/06/10 10:28:08;;;;;;;8.25;5.10;;;;;;;;;;5013876;28;20058;-63
2023/06/10 10:30:41;;;;;;;6.57;4.32;;;;;;;;;;5023861;28;20036;-66
2023/06/10 10:33:12;;;;;;;7.63;5.03;;;;;;;;;;5029165;28;20021;-63
2023/06/10 10:35:37;;;;;;;7.28;4.63;;;;;;;;;;5020240;28;20049;-62
2023/06/10 10:38:02;;;;;;;;;;;;;;;;;;5032209;28;20041;-62
2023/06/10 10:40:29;;;;;;;7.80;4.82;;;;;;;;;;5031229;28;19913;-63
2023/06/10 10:42:55;;;;;;;9.82;4.60;;;;;;;;;;5026916;28;20010;-63
2023/06/10 10:45:21;;;;;;;8.75;4.75;;;;;;;;;;5020425;28;20623;-63
2023/06/10 10:47:46;;;;;;;;;;;;;;;;;;5018688;28;20034;-64
2023/06/10 10:50:16;;;;;;;10.55;5.63;;;;;;;;;;5023133;28;19916;-63
2023/06/10 10:52:52;;;;;;;6.80;4.40;;;;;;;;;;5025523;28;20053;-62
2023/06/10 10:55:17;;;;;;;8.43;4.25;;;;;;;;;;5020664;28;20025;-63
2023/06/10 10:57:42;;;;;;;;;;;;;;;;;;5018785;28;20031;-63
2023/06/10 11:00:09;;;;;;;8.55;4.60;;;;;;;;;;5016756;28;20823;-63
2023/06/10 11:02:40;;;;;;;10.02;4.63;;;;;;;;;;5025367;28;20029;-63
2023/06/10 11:05:06;;;;;;;7.25;4.30;;;;;;;;;;5018771;28;20422;-63
2023/06/10 11:07:32;;;;;;;10.50;4.25;;;;;;;;;;5024644;28;20028;-63
2023/06/10 11:09:57;;;;;;;;;;;;;;;;;;5043247;28;20031;-63
2023/06/10 11:12:24;;;;;;;7.03;4.40;;;;;;;;;;5025055;28;20005;-63
2023/06/10 11:14:53;;;;;;;8.32;4.43;;;;;;;;;;5027812;28;20037;-62
2023/06/10 11:17:19;;;;;;;9.63;5.15;;;;;;;;;;5032200;28;20014;-63
2023/06/10 11:19:46;;;;;;;;;;;;;;;;;;5016909;28;20030;-62
2023/06/10 11:22:15;;;;;;;7.88;4.63;;;;;;;;;;5019067;28;19968;-63
2023/06/10 11:24:40;;;;;;;8.65;4.75;;;;;;;;;;5019919;28;20501;-62
2023/06/10 11:27:06;;;;;;;;;;;;;;;;;;5026052;28;20034;-62
2023/06/10 11:29:31;;;;;;;7.90;4.68;;;;;;;;;;5017840;28;20407;-62
2023/06/10 11:31:57;;;;;;;;;;;;;;;;;;5027182;28;20022;-63
2023/06/10 11:34:27;;;;;;;7.95;4.70;;;;;;;;;;5019729;28;19912;-62
2023/06/10 11:36:52;;;;;;;8.65;4.72;;;;;;;;;;5018697;28;20026;-62
2023/06/10 11:39:17;;;;;;;;;;;;;;;;;;5012863;28;20022;-63
2023/06/10 11:41:43;;;;;;;7.93;5.22;;;;;;;;;;5026178;28;19931;-63
2023/06/10 11:44:08;;;;;;;6.80;4.50;;;;;;;;;;5015753;28;20029;-62
2023/06/10 11:46:33;;;;;;;;;;;;;;;;;;5022218;28;20072;-64
2023/06/10 11:48:59;;;;;;;8.15;4.47;;;;;;;;;;5016636;28;19951;-62
2023/06/10 11:51:24;;;;;;;;;;;;;;;;;;5017214;28;20022;-63
2023/06/10 11:53:49;;;;;;;9.10;4.85;;;;;;;;;;5023103;28;19919;-62
2023/06/10 11:56:14;;;;;;;;;;;;;;;;;;5015469;28;20033;-62
2023/06/10 11:58:43;;;;;;;9.57;4.80;;;;;;;;;;5020121;28;19963;-63
2023/06/10 12:01:08;;;;;;;9.73;4.22;;;;;;;;;;5016768;28;20014;-62
2023/06/10 12:03:33;;;;;;;;;;;;;;;;;;5014751;28;20363;-62
2023/06/10 12:06:05;;;;;;;6.90;4.25;;;;;;;;;;5016650;28;19909;-63
2023/06/10 12:08:30;;;;;;;;;;;;;;;;;;5019375;28;20037;-62
2023/06/10 12:10:56;;;;;;;8.32;4.53;;;;;;;;;;5013640;28;19905;-62
2023/06/10 12:13:21;;;;;;;;;;;;;;;;;;5020901;28;20014;-62
2023/06/10 12:15:46;;;;;;;7.93;5.53;;;;;;;;;;5028390;28;19909;-64
2023/06/10 12:18:12;;;;;;;;;;;;;;;;;;5024170;28;20026;-63
2023/06/10 12:20:37;;;;;;;8.23;4.35;;;;;;;;;;5018141;28;19913;-61
2023/06/10 12:23:02;;;;;;;;;;;;;;;;;;5015513;28;20474;-61
2023/06/10 12:25:28;;;;;;;10.43;4.80;;;;;;;;;;5019493;28;19963;-62
2023/06/10 12:27:53;;;;;;;;;;;;;;;;;;5022934;28;20036;-63
2023/06/10 12:30:19;;;;;;;7.43;4.38;;;;;;;;;;5018603;28;19921;-62
2023/06/10 12:32:46;;;;;;;8.35;4.70;;;;;;;;;;5027304;28;20022;-62
2023/06/10 12:35:12;;;;;;;8.30;3.95;;;;;;;;;;5033650;28;20048;-62
2023/06/10 12:37:38;;;;;;;7.85;4.28;;;;;;;;;;5026478;28;20057;-62
2023/06/10 12:40:03;;;;;;;;;;;;;;;;;;5025627;28;20048;-61
2023/06/10 12:42:29;;;;;;;7.15;4.00;;;;;;;;;;5015593;28;20396;-62
2023/06/10 12:44:56;;;;;;;7.68;5.03;;;;;;;;;;5014886;28;20030;-62
2023/06/10 12:47:28;;;;;;;6.97;4.45;;;;;;;;;;5024985;28;20033;-63
2023/06/10 12:49:53;;;;;;;9.77;4.70;;;;;;;;;;5012314;28;20099;-62
2023/06/10 12:52:19;;;;;;;;;;;;;;;;;;5012324;28;20474;-62
2023/06/10 12:54:44;;;;;;;8.52;4.10;;;;;;;;;;5021380;28;20300;-65
2023/06/10 12:57:10;;;;;;;7.63;4.55;;;;;;;;;;5016472;28;20092;-64
2023/06/10 12:59:35;;;;;;;8.43;4.82;;;;;;;;;;5021830;28;20030;-64
2023/06/10 13:02:02;;;;;;;6.60;3.92;;;;;;;;;;5020555;28;20050;-63
2023/06/10 13:04:27;;;;;;;;;;;;;;;;;;5014866;28;20708;-63
2023/06/10 13:06:52;;;;;;;7.00;4.65;;;;;;;;;;5020873;28;19964;-63
2023/06/10 13:09:17;;;;;;;6.68;4.90;;;;;;;;;;5020733;28;20466;-63
2023/06/10 13:11:42;;;;;;;;;;;;;;;;;;5038190;28;20053;-63
2023/06/10 13:14:08;;;;;;;7.67;4.37;;;;;;;;;;5027667;28;19917;-63
2023/06/10 13:16:33;;;;;;;6.63;4.15;;;;;;;;;;5032808;28;20029;-63
2023/06/10 13:18:58;;;;;;;;;;;;;;;;;;5027040;28;20017;-63
2023/06/10 13:21:24;;;;;;;9.17;4.60;;;;;;;;;;5022420;28;20367;-62
2023/06/10 13:23:50;;;;;;;;;;;;;;;;;;5031981;28;20053;-62
2023/06/10 13:26:17;;;;;;;7.82;4.30;;;;;;;;;;5029174;28;19923;-62
2023/06/10 13:28:43;;;;;;;7.90;4.40;;;;;;;;;;5037428;28;20026;-61
2023/06/10 13:31:08;;;;;;;;;;;;;;;;;;5032287;28;20022;-61
2023/06/10 13:33:33;;;;;;;7.95;4.28;;;;;;;;;;5031695;28;19962;-63
2023/06/10 13:35:58;;;;;;;7.40;3.97;;;;;;;;;;5027749;28;20025;-62
2023/06/10 13:38:23;;;;;;;7.22;4.20;;;;;;;;;;5023834;28;20167;-62
2023/06/10 13:40:49;;;;;;;;;;;;;;;;;;5032154;28;20044;-61
2023/06/10 13:43:15;;;;;;;6.40;3.95;;;;;;;;;;5025805;28;19909;-63
2023/06/10 13:45:40;;;;;;;7.70;4.00;;;;;;;;;;5019305;28;20037;-62
2023/06/10 13:48:05;;;;;;;;;;;;;;;;;;5031029;28;20033;-61
2023/06/10 13:50:31;;;;;;;5.93;3.63;;;;;;;;;;5023448;28;20339;-63
2023/06/10 13:52:56;;;;;;;;;;;;;;;;;;5027271;28;20473;-63
2023/06/10 13:55:21;;;;;;;6.88;3.67;;;;;;;;;;5038070;28;19928;-62
2023/06/10 13:57:46;;;;;;;7.63;3.78;;;;;;;;;;5036425;28;20018;-63
2023/06/10 14:00:11;;;;;;;;;;;;;;;;;;5033183;28;20389;-62
2023/06/10 14:02:37;;;;;;;6.53;3.90;;;;;;;;;;5031025;28;20423;-63
2023/06/10 14:05:02;;;;;;;;;;;;;;;;;;5032286;28;20036;-63
2023/06/10 14:07:28;;;;;;;7.13;3.40;;;;;;;;;;5027016;28;19917;-61
2023/06/10 14:09:53;;;;;;;6.00;3.50;;;;;;;;;;5029826;28;20427;-61
2023/06/10 14:12:18;;;;;;;;;;;;;;;;;;5024345;28;20025;-62
2023/06/10 14:14:43;;;;;;;7.35;3.60;;;;;;;;;;5027032;28;19952;-63
2023/06/10 14:17:08;;;;;;;;;;;;;;;;;;5024316;28;20027;-63
2023/06/10 14:19:33;;;;;;;8.98;3.50;;;;;;;;;;5026897;28;20379;-66
2023/06/10 14:21:58;;;;;;;6.35;3.75;;;;;;;;;;5031629;28;20021;-63
2023/06/10 14:24:23;;;;;;;;;;;;;;;;;;5023545;28;20029;-64
2023/06/10 14:26:49;;;;;;;6.28;3.30;;;;;;;;;;5020991;28;19924;-63
2023/06/10 14:29:14;;;;;;;7.30;3.40;;;;;;;;;;5023887;28;20106;-63
2023/06/10 14:31:39;;;;;;;;;;;;;;;;;;5025301;28;20104;-62
2023/06/10 14:34:07;;;;;;;5.25;3.28;;;;;;;;;;5031382;28;20132;-62
2023/06/10 14:36:33;;;;;;;5.70;3.40;;;;;;;;;;5031032;28;20025;-62
2023/06/10 14:38:58;;;;;;;;;;;;;;;;;;5031411;28;20014;-62
2023/06/10 14:41:23;;;;;;;8.00;4.10;;;;;;;;;;5029527;28;20368;-63
2023/06/10 14:43:48;;;;;;;8.88;3.65;;;;;;;;;;5031096;28;20493;-62
2023/06/10 14:46:13;;;;;;;;;;;;;;;;;;5026098;28;20072;-64